UNNTUNKL

Guest
Details From UNNT - Novosibirsk Tolmachevo
To UNKL - Yemelyanovo
Flight Number -
Tags Generated
Created
Modified
Stats Distance 341 nm / 632 km
Max Altitude 0 ft / 0 m
Waypoints 3
Social Downloads 2
Likes 0
Share VATSIM

Download

Looking for another format? Having issues loading an existing format? Contact us
Advertisement - Login to hide

Notes

Generated

Route

UNNT AJ UNKL

ID Type Via Altitude Latitude Longitude Leg Dist Tot Dist Heading (true) Name
O UNNT APT - 0 ft / 0 m 55.01130˚ 82.62816˚ - 0 nm - -
AJ NDB - 0 ft / 0 m 56.19333˚ 92.40667˚ 338 nm 338 nm 74° / 82° KRASNOYARSK NDB
O UNKL APT - 0 ft / 0 m 56.17948˚ 92.46587˚ 2 nm 341 nm 113° / 113° -

Altitude Profile

Advertisement - Login to hide

Weather


0- 5 10 15 20 25 30 35+ Temperature / ° C

Clouds and Precipitation
Forecast for 2017-12-12 00:00 UTC. Updated 2 hours ago

Ground ~20,000 ft ~40,000 ft Winds

UNNT

Details ICAO UNNT (OVB)
Name Novosibirsk Tolmachevo
Region Russia
Timezone Asia/Novosibirsk (UTC+7.0)
Stats Elevation 365 ft / 111 m (AMSL)
Location 55.013017° 82.651065°
Runways 2
Magnetic Variation 8.864° E

METAR

UNNT 112230Z 35001MPS 9999 BKN043 M14/M16 Q1026 R07/810155 R34/810155 NOSIG RMK QFE760/1013

Decode

TAF

TAF UNNT 112000Z 1121/1221 01003MPS 4000 BR BKN020CB TEMPO 1121/1206 0350 -SHSN FZFG BKN002 BKN020CB FM120600 32003G08MPS 9999 SCT030CB TEMPO 1212/1221 -SHSN BKN015CB

Decode

Departure Runways

ID Width Length Bearing (true) Bearing (mag) Surface Threshold Offset Overrun Length
07 190 ft / 58 m 11,817 ft / 3,602 m 81.00° 72.14° Asphalt 0 ft / 0 m 250 ft / 76 m
07L 304 ft / 93 m 9,877 ft / 3,011 m 81.01° 72.15° Grass 0 ft / 0 m 0 ft / 0 m
25 190 ft / 58 m 11,817 ft / 3,602 m 261.04° 252.18° Asphalt 0 ft / 0 m 225 ft / 69 m
25R 304 ft / 93 m 9,877 ft / 3,011 m 261.05° 252.19° Grass 0 ft / 0 m 0 ft / 0 m

UNKL

Details ICAO UNKL (KJA)
Name YEMELYANOVO
Region Russia
Timezone Asia/Krasnoyarsk (UTC+7.0)
Stats Elevation 942 ft / 287 m (AMSL)
Location 56.172946° 92.493276°
Runways 1
Magnetic Variation 4.123° E

METAR

UNKL 112230Z 00000MPS 1900 R29/P2000D SHSN BR BKN016CB M11/M13 Q1024 R29/490245 NOSIG RMK QFE742

Decode

TAF

TAF UNKL 112000Z 1121/1221 VRB01MPS 1500 SHSN BR SCT007 BKN013CB TEMPO 1121/1203 0500 SHSN FZFG VV003 BECMG 1203/1204 3500 -SHSN BR FM120600 27003G09MPS 9000 -SHSN SCT020CB TEMPO 1206/1218 2500 -SHSN BKN013CB

Decode

Destination Runways

ID Width Length Bearing (true) Bearing (mag) Surface Threshold Offset Overrun Length
11 197 ft / 60 m 12,113 ft / 3,692 m 113.16° 109.04° Asphalt 0 ft / 0 m 235 ft / 72 m
29 197 ft / 60 m 12,113 ft / 3,692 m 293.21° 289.09° Asphalt 0 ft / 0 m 215 ft / 66 m

Popular Alternatives